Time;durP1;ratioP1;P1;durP2;ratioP2;P2;SDS_P1;SDS_P2;PMS_P1;PMS_P2;Temp;Humidity;BMP_temperature;BMP_pressure;BME280_temperature;BME280_humidity;BME280_pressure;Samples;Min_cycle;Max_cycle;Signal;HPM_P1;HPM_P2
2022/09/22 00:01:21;;;;;;;5.28;3.60;;;9.40;99.90;;;;;;4871225;29;20127;-55
2022/09/22 00:03:52;;;;;;;4.40;3.15;;;9.40;99.90;;;;;;4868199;29;20056;-57
2022/09/22 00:06:21;;;;;;;4.43;2.92;;;9.30;99.90;;;;;;4869884;29;20040;-56
2022/09/22 00:08:50;;;;;;;3.63;2.28;;;9.20;99.90;;;;;;4868016;29;20069;-57
2022/09/22 00:11:19;;;;;;;2.78;2.30;;;9.20;99.90;;;;;;4869974;29;20107;-56
2022/09/22 00:13:52;;;;;;;2.97;1.80;;;9.20;99.90;;;;;;4866105;29;20400;-57
2022/09/22 00:16:21;;;;;;;3.67;2.40;;;9.10;99.90;;;;;;4868177;29;20118;-57
2022/09/22 00:18:47;;;;;;;5.38;2.67;;;9.10;99.90;;;;;;4872969;29;20106;-57
2022/09/22 00:21:16;;;;;;;5.05;4.10;;;9.10;99.90;;;;;;4884357;29;20060;-57
2022/09/22 00:23:42;;;;;;;5.40;3.33;;;9.00;99.90;;;;;;4853105;29;20060;-56
2022/09/22 00:26:14;;;;;;;5.93;3.50;;;9.00;99.90;;;;;;4870670;29;20052;-57
2022/09/22 00:28:42;;;;;;;4.53;3.47;;;9.00;99.90;;;;;;4869332;29;20536;-56
2022/09/22 00:31:11;;;;;;;5.68;3.30;;;9.00;99.90;;;;;;4868519;29;20128;-57
2022/09/22 00:33:38;;;;;;;5.32;2.90;;;9.00;99.90;;;;;;4870994;29;20040;-57
2022/09/22 00:36:04;;;;;;;4.72;3.25;;;8.90;99.90;;;;;;4870041;29;20063;-57
2022/09/22 00:38:30;;;;;;;4.03;3.03;;;8.90;99.90;;;;;;4875351;29;20540;-56
2022/09/22 00:40:56;;;;;;;5.35;3.08;;;8.90;99.90;;;;;;4871249;29;20053;-56
2022/09/22 00:43:27;;;;;;;7.30;3.55;;;8.90;99.90;;;;;;4871919;29;20063;-57
2022/09/22 00:46:21;;;;;;;6.60;4.00;;;8.90;99.90;;;;;;4870439;29;20095;-57
2022/09/22 00:48:54;;;;;;;6.25;4.05;;;8.90;99.90;;;;;;4874621;29;20124;-57
2022/09/22 00:51:21;;;;;;;;;;;8.90;99.90;;;;;;4869376;29;20508;-56
2022/09/22 00:53:47;;;;;;;8.00;4.40;;;8.90;99.90;;;;;;4871114;29;19923;-55
2022/09/22 00:56:19;;;;;;;7.20;4.45;;;8.80;99.90;;;;;;4871324;29;20722;-55
2022/09/22 00:58:51;;;;;;;7.05;4.57;;;8.90;99.90;;;;;;4870147;29;20650;-55
2022/09/22 01:01:18;;;;;;;8.48;4.60;;;8.90;99.90;;;;;;4872037;29;20045;-57
2022/09/22 01:03:45;;;;;;;8.43;4.90;;;8.90;99.90;;;;;;4873534;29;20051;-56
2022/09/22 01:06:17;;;;;;;6.60;4.50;;;8.90;99.90;;;;;;4873104;29;20048;-56
2022/09/22 01:08:44;;;;;;;6.68;4.28;;;8.90;99.90;;;;;;4870662;29;20060;-57
2022/09/22 01:11:13;;;;;;;8.95;4.80;;;8.90;99.90;;;;;;4871603;29;20049;-57
2022/09/22 01:13:43;;;;;;;11.07;4.90;;;8.90;99.90;;;;;;4869088;29;22275;-56
2022/09/22 01:16:27;;;;;;;6.80;4.45;;;8.90;99.90;;;;;;4870703;29;20045;-55
2022/09/22 01:19:27;;;;;;;6.78;4.18;;;8.90;99.90;;;;;;4869422;29;20139;-57
2022/09/22 01:22:15;;;;;;;9.10;4.30;;;8.90;99.90;;;;;;4868166;29;20164;-55
2022/09/22 01:24:50;;;;;;;7.65;4.47;;;8.80;99.90;;;;;;4870044;29;22043;-56
2022/09/22 01:27:21;;;;;;;5.78;4.03;;;8.80;99.90;;;;;;4870343;29;20893;-56
2022/09/22 01:30:16;;;;;;;8.87;4.27;;;8.80;99.90;;;;;;4874053;29;20127;-56
2022/09/22 01:32:58;;;;;;;9.25;4.43;;;8.80;99.90;;;;;;4870164;29;20087;-56
2022/09/22 01:35:49;;;;;;;6.70;3.45;;;8.80;99.90;;;;;;4872606;29;20080;-57
2022/09/22 01:38:45;;;;;;;9.50;3.97;;;8.80;99.90;;;;;;4873855;29;20053;-57
2022/09/22 01:41:23;;;;;;;11.00;4.35;;;8.70;99.90;;;;;;4863246;29;20503;-57
2022/09/22 01:43:52;;;;;;;7.63;4.20;;;8.70;99.90;;;;;;4865643;29;20052;-57
2022/09/22 01:46:39;;;;;;;7.57;4.03;;;8.70;99.90;;;;;;4869152;29;20389;-57
2022/09/22 01:49:09;;;;;;;6.60;4.05;;;8.70;99.90;;;;;;4868778;29;20052;-56
2022/09/22 01:51:50;;;;;;;6.53;3.92;;;8.70;99.90;;;;;;4869846;29;20045;-56
2022/09/22 01:54:30;;;;;;;8.10;4.00;;;8.70;99.90;;;;;;4871235;29;20649;-55
2022/09/22 01:57:05;;;;;;;6.45;4.28;;;8.70;99.90;;;;;;4871124;29;20060;-57
2022/09/22 01:59:36;;;;;;;5.93;4.05;;;8.70;99.90;;;;;;4867634;29;20603;-56
2022/09/22 02:02:09;;;;;;;4.95;3.17;;;8.70;99.90;;;;;;4881753;29;20061;-57
2022/09/22 02:04:46;;;;;;;4.60;3.33;;;8.60;99.90;;;;;;4868822;29;20059;-56
2022/09/22 02:07:32;;;;;;;4.57;3.25;;;8.70;99.90;;;;;;4869993;29;20049;-57
2022/09/22 02:10:01;;;;;;;5.90;3.90;;;8.50;99.90;;;;;;4870562;29;20079;-57
2022/09/22 02:12:27;;;;;;;4.13;2.90;;;8.50;99.90;;;;;;4867457;29;20081;-57
2022/09/22 02:14:53;;;;;;;4.57;3.00;;;8.40;99.90;;;;;;4871040;29;20057;-57
2022/09/22 02:17:19;;;;;;;3.53;2.90;;;8.40;99.90;;;;;;4871964;29;20797;-54
2022/09/22 02:19:45;;;;;;;6.10;3.50;;;8.40;99.90;;;;;;4883796;29;20160;-56
2022/09/22 02:22:12;;;;;;;8.30;3.78;;;8.30;99.90;;;;;;4870073;29;20059;-55
2022/09/22 02:24:40;;;;;;;5.22;3.45;;;8.30;99.90;;;;;;4872069;29;20056;-57
2022/09/22 02:27:25;;;;;;;6.55;3.78;;;8.30;99.90;;;;;;4869840;29;20056;-56
2022/09/22 02:30:07;;;;;;;4.55;3.45;;;8.30;99.90;;;;;;4870995;29;20448;-57
2022/09/22 02:32:36;;;;;;;7.63;3.50;;;8.30;99.90;;;;;;4870837;29;20053;-56
2022/09/22 02:35:02;;;;;;;9.35;3.90;;;8.30;99.90;;;;;;4872071;29;20531;-55
2022/09/22 02:37:46;;;;;;;6.30;3.42;;;8.30;99.90;;;;;;4872338;29;20128;-56
2022/09/22 02:40:14;;;;;;;5.05;2.97;;;8.40;99.90;;;;;;4871598;29;20610;-57
2022/09/22 02:42:44;;;;;;;6.40;3.22;;;8.30;99.90;;;;;;4872887;29;20059;-57
2022/09/22 02:45:32;;;;;;;6.43;3.13;;;8.30;99.90;;;;;;4869806;29;20149;-56
2022/09/22 02:48:00;;;;;;;6.95;3.47;;;8.30;99.90;;;;;;4873615;29;20060;-57
2022/09/22 02:50:28;;;;;;;5.10;3.25;;;8.30;99.90;;;;;;4873802;29;20045;-56
2022/09/22 02:53:04;;;;;;;8.75;3.15;;;8.30;99.90;;;;;;4871891;29;20768;-57
2022/09/22 02:55:29;;;;;;;8.07;3.25;;;8.40;99.90;;;;;;4870670;29;20124;-56
2022/09/22 02:57:55;;;;;;;7.50;3.65;;;8.40;99.90;;;;;;4869606;29;20037;-57
2022/09/22 03:00:21;;;;;;;8.75;3.15;;;8.40;99.90;;;;;;4868958;29;20056;-56
2022/09/22 03:02:47;;;;;;;6.63;3.20;;;8.40;99.90;;;;;;4871493;29;20048;-54
2022/09/22 03:05:13;;;;;;;6.10;3.03;;;8.40;99.90;;;;;;4870654;29;20496;-56
2022/09/22 03:07:38;;;;;;;5.78;3.33;;;8.40;99.90;;;;;;4869264;29;20126;-57
2022/09/22 03:10:05;;;;;;;6.50;3.42;;;8.40;99.90;;;;;;4872108;29;20065;-57
2022/09/22 03:12:31;;;;;;;10.25;3.35;;;8.50;99.90;;;;;;4868684;29;20135;-56
2022/09/22 03:14:57;;;;;;;9.30;3.70;;;8.50;99.90;;;;;;4871266;29;20055;-57
2022/09/22 03:17:22;;;;;;;6.03;3.10;;;8.40;99.90;;;;;;4872471;29;20053;-56
2022/09/22 03:19:48;;;;;;;4.72;2.63;;;8.30;99.90;;;;;;4871407;29;20076;-56
2022/09/22 03:22:14;;;;;;;6.75;3.15;;;8.30;99.90;;;;;;4866845;29;20759;-57
2022/09/22 03:24:40;;;;;;;3.65;2.45;;;8.30;99.90;;;;;;4870381;29;20124;-56
2022/09/22 03:27:05;;;;;;;6.38;2.85;;;8.30;99.90;;;;;;4875733;29;20055;-57
2022/09/22 03:29:31;;;;;;;7.47;2.97;;;8.30;99.90;;;;;;4869881;29;20049;-56
2022/09/22 03:31:57;;;;;;;5.65;2.83;;;8.30;99.90;;;;;;4873280;29;20107;-55
2022/09/22 03:34:23;;;;;;;7.57;2.95;;;8.30;99.90;;;;;;4876133;29;20056;-57
2022/09/22 03:36:49;;;;;;;7.15;2.88;;;8.30;99.90;;;;;;4878981;29;20132;-57
2022/09/22 03:39:14;;;;;;;4.20;3.15;;;8.20;99.90;;;;;;4870721;29;20412;-57
2022/09/22 03:41:40;;;;;;;4.75;2.70;;;8.20;99.90;;;;;;4870177;29;20143;-55
2022/09/22 03:44:06;;;;;;;4.60;2.53;;;8.20;99.90;;;;;;4870524;29;20044;-56
2022/09/22 03:46:33;;;;;;;4.30;2.67;;;8.20;99.90;;;;;;4866675;29;20045;-56
2022/09/22 03:48:59;;;;;;;6.60;2.83;;;8.20;99.90;;;;;;4867417;29;20089;-57
2022/09/22 03:51:25;;;;;;;5.45;3.20;;;8.10;99.90;;;;;;4870931;29;20056;-56
2022/09/22 03:53:51;;;;;;;6.28;3.22;;;8.10;99.90;;;;;;4870583;29;20079;-56
2022/09/22 03:56:16;;;;;;;5.55;3.00;;;8.10;99.90;;;;;;4872155;29;20045;-56
2022/09/22 03:58:43;;;;;;;7.68;3.40;;;8.00;99.90;;;;;;4871684;29;20161;-56
2022/09/22 04:01:10;;;;;;;7.45;3.10;;;8.00;99.90;;;;;;4873637;29;20053;-56
2022/09/22 04:03:36;;;;;;;7.25;3.10;;;8.00;99.90;;;;;;4870420;29;20135;-57
2022/09/22 04:06:03;;;;;;;5.00;2.70;;;8.00;99.90;;;;;;4870089;29;20084;-56
2022/09/22 04:08:29;;;;;;;5.85;3.00;;;8.00;99.90;;;;;;4870683;29;20117;-55
2022/09/22 04:10:56;;;;;;;7.03;2.72;;;8.00;99.90;;;;;;4886500;29;20483;-57
2022/09/22 04:13:22;;;;;;;5.68;3.17;;;8.10;99.90;;;;;;4874063;29;20057;-56
2022/09/22 04:15:48;;;;;;;8.70;3.40;;;8.10;99.90;;;;;;4869575;29;20050;-56
2022/09/22 04:18:14;;;;;;;6.20;3.35;;;8.10;99.90;;;;;;4874605;29;20046;-55
2022/09/22 04:20:44;;;;;;;6.55;3.20;;;8.10;99.90;;;;;;4867533;29;20088;-55
2022/09/22 04:23:14;;;;;;;6.07;3.35;;;8.10;99.90;;;;;;4871393;29;20073;-56
2022/09/22 04:25:40;;;;;;;7.82;3.20;;;8.10;99.90;;;;;;4868205;29;20052;-56
2022/09/22 04:28:07;;;;;;;6.38;3.00;;;8.10;99.90;;;;;;4873545;29;20499;-56
2022/09/22 04:30:34;;;;;;;6.43;3.33;;;8.00;99.90;;;;;;4870396;29;20123;-55
2022/09/22 04:33:00;;;;;;;3.38;2.72;;;8.00;99.90;;;;;;4872086;29;20041;-55
2022/09/22 04:35:27;;;;;;;5.88;3.00;;;8.00;99.90;;;;;;4870589;29;20088;-55
2022/09/22 04:37:56;;;;;;;5.63;2.60;;;8.00;99.90;;;;;;4852463;29;20105;-55
2022/09/22 04:40:23;;;;;;;6.68;3.00;;;7.90;99.90;;;;;;4870014;29;20053;-56
2022/09/22 04:42:49;;;;;;;7.25;3.50;;;7.90;99.90;;;;;;4871377;29;20132;-57
2022/09/22 04:45:16;;;;;;;6.60;3.00;;;7.90;99.90;;;;;;4870917;29;20139;-56
2022/09/22 04:47:49;;;;;;;9.15;3.70;;;7.90;99.90;;;;;;4870769;29;20049;-56
2022/09/22 04:50:15;;;;;;;4.38;3.00;;;7.90;99.90;;;;;;4873175;29;20132;-56
2022/09/22 04:52:59;;;;;;;7.95;3.55;;;7.90;99.90;;;;;;4868732;29;20825;-55
2022/09/22 04:55:27;;;;;;;9.85;3.20;;;7.90;99.90;;;;;;4870443;29;20041;-55
2022/09/22 04:57:56;;;;;;;8.50;3.50;;;7.90;99.90;;;;;;4871965;29;20044;-54
2022/09/22 05:00:24;;;;;;;6.90;2.97;;;7.90;99.90;;;;;;4872792;29;20053;-56
2022/09/22 05:02:50;;;;;;;4.93;3.10;;;7.90;99.90;;;;;;4869941;29;20048;-56
2022/09/22 05:05:16;;;;;;;6.95;3.30;;;7.80;99.90;;;;;;4871073;29;20044;-55
2022/09/22 05:07:53;;;;;;;7.60;3.50;;;7.90;99.90;;;;;;4871033;29;22230;-56
2022/09/22 05:10:20;;;;;;;7.20;3.47;;;7.90;99.90;;;;;;4869806;29;20068;-57
2022/09/22 05:12:46;;;;;;;9.65;3.58;;;7.80;99.90;;;;;;4867830;29;20064;-56
2022/09/22 05:15:13;;;;;;;6.30;3.75;;;7.90;99.90;;;;;;4872378;29;20132;-57
2022/09/22 05:17:50;;;;;;;8.95;3.80;;;7.90;99.90;;;;;;4867715;29;20551;-56
2022/09/22 05:20:17;;;;;;;6.88;3.42;;;7.90;99.90;;;;;;4870095;29;20101;-57
2022/09/22 05:22:44;;;;;;;5.53;3.70;;;7.90;99.90;;;;;;4865018;29;20245;-56
2022/09/22 05:25:11;;;;;;;7.18;3.50;;;7.90;99.90;;;;;;4873753;29;20045;-57
2022/09/22 05:27:46;;;;;;;4.53;2.83;;;7.90;99.90;;;;;;4872815;29;20161;-55
2022/09/22 05:30:12;;;;;;;7.32;3.70;;;7.80;99.90;;;;;;4872615;29;20049;-55
2022/09/22 05:32:42;;;;;;;6.22;3.30;;;7.80;99.90;;;;;;4868403;29;20060;-56
2022/09/22 05:35:12;;;;;;;6.47;3.38;;;7.80;99.90;;;;;;4865696;29;20048;-56
2022/09/22 05:37:41;;;;;;;5.95;3.30;;;7.70;99.90;;;;;;4869484;29;20400;-57
2022/09/22 05:40:07;;;;;;;5.53;3.45;;;7.70;99.90;;;;;;4866437;29;20144;-56
2022/09/22 05:42:37;;;;;;;7.70;3.67;;;7.70;99.90;;;;;;4866631;29;20049;-55
2022/09/22 05:45:03;;;;;;;10.63;3.92;;;7.70;99.90;;;;;;4864923;29;20037;-57
2022/09/22 05:47:32;;;;;;;5.15;3.25;;;7.70;99.90;;;;;;4869034;29;20056;-55
2022/09/22 05:49:58;;;;;;;9.68;4.78;;;7.70;99.90;;;;;;4874595;29;20053;-57
2022/09/22 05:52:23;;;;;;;6.72;4.45;;;7.70;99.90;;;;;;4873221;29;20064;-55
2022/09/22 05:54:49;;;;;;;10.07;4.68;;;7.70;99.90;;;;;;4886073;29;20499;-57
2022/09/22 05:57:15;;;;;;;8.55;4.30;;;7.80;99.90;;;;;;4871691;29;20056;-56
2022/09/22 05:59:41;;;;;;;7.93;4.32;;;7.80;99.90;;;;;;4885832;29;21020;-54
2022/09/22 06:02:10;;;;;;;5.00;4.00;;;7.80;99.90;;;;;;4871739;29;20092;-56
2022/09/22 06:04:36;;;;;;;6.80;4.40;;;7.70;99.90;;;;;;4869174;29;20192;-55
2022/09/22 06:07:01;;;;;;;8.55;4.65;;;7.80;99.90;;;;;;4866369;29;20476;-56
2022/09/22 06:09:27;;;;;;;8.82;5.18;;;7.80;99.90;;;;;;4868294;29;20065;-54
2022/09/22 06:11:53;;;;;;;8.50;4.45;;;7.80;99.90;;;;;;4868818;29;20131;-56
2022/09/22 06:14:19;;;;;;;12.15;5.13;;;7.80;99.90;;;;;;4865165;29;20489;-49
2022/09/22 06:16:46;;;;;;;9.93;5.10;;;7.80;99.90;;;;;;4869570;29;20053;-50
2022/09/22 06:19:13;;;;;;;11.90;5.75;;;7.80;99.90;;;;;;4874677;29;20053;-51
2022/09/22 06:21:39;;;;;;;10.10;6.07;;;7.90;99.90;;;;;;4872648;29;20814;-49
2022/09/22 06:24:05;;;;;;;7.97;6.10;;;7.90;99.90;;;;;;4874694;29;20048;-52
2022/09/22 06:26:31;;;;;;;10.90;6.68;;;7.90;99.90;;;;;;4875661;29;20552;-50
2022/09/22 06:28:57;;;;;;;9.32;6.70;;;8.00;99.90;;;;;;4872667;29;20052;-49
2022/09/22 06:31:23;;;;;;;11.82;7.00;;;8.00;99.90;;;;;;4874850;29;20123;-50
2022/09/22 06:33:49;;;;;;;10.80;6.80;;;8.10;99.90;;;;;;4872840;29;20052;-48
2022/09/22 06:36:26;;;;;;;13.48;7.65;;;8.10;99.90;;;;;;4870472;29;20060;-48
2022/09/22 06:38:53;;;;;;;12.85;6.97;;;8.20;99.90;;;;;;4874900;29;20057;-49
2022/09/22 06:41:19;;;;;;;8.73;6.78;;;8.30;99.90;;;;;;4874785;29;20112;-52
2022/09/22 06:43:46;;;;;;;12.00;7.00;;;8.20;99.90;;;;;;4873360;29;20052;-51
2022/09/22 06:46:12;;;;;;;15.95;7.25;;;8.40;99.90;;;;;;4874038;29;20084;-49
2022/09/22 06:48:38;;;;;;;12.55;6.70;;;8.40;99.90;;;;;;4873813;29;20123;-48
2022/09/22 06:51:04;;;;;;;11.40;7.00;;;8.40;99.90;;;;;;4867109;29;20073;-48
2022/09/22 06:53:30;;;;;;;14.75;7.65;;;8.50;99.90;;;;;;4872275;29;20056;-54
2022/09/22 06:55:59;;;;;;;10.80;6.57;;;8.50;99.90;;;;;;4884136;29;20063;-51
2022/09/22 06:58:26;;;;;;;10.48;7.60;;;8.60;99.90;;;;;;4872113;29;20068;-52
2022/09/22 07:00:53;;;;;;;13.93;7.95;;;8.60;99.90;;;;;;4873720;29;20407;-52
2022/09/22 07:03:21;;;;;;;10.65;8.02;;;8.70;99.90;;;;;;4873688;29;20064;-51
2022/09/22 07:06:01;;;;;;;14.48;8.23;;;8.80;99.90;;;;;;4870483;29;20049;-48
2022/09/22 07:08:29;;;;;;;11.30;8.18;;;8.90;99.90;;;;;;4871279;29;21958;-52
2022/09/22 07:10:57;;;;;;;11.32;7.82;;;8.90;99.90;;;;;;4871581;29;20572;-51
2022/09/22 07:13:28;;;;;;;12.45;8.00;;;9.00;99.90;;;;;;4868387;29;20496;-50
2022/09/22 07:16:02;;;;;;;10.55;7.93;;;9.10;99.90;;;;;;4871460;29;20420;-52
2022/09/22 07:18:29;;;;;;;10.45;7.75;;;9.10;99.90;;;;;;4873284;29;20048;-48
2022/09/22 07:21:07;;;;;;;13.35;8.10;;;9.20;99.90;;;;;;4872630;29;20429;-51
2022/09/22 07:23:34;;;;;;;12.77;7.43;;;9.30;99.90;;;;;;4879664;29;20519;-49
2022/09/22 07:26:04;;;;;;;15.30;6.65;;;9.40;99.90;;;;;;4879859;29;20056;-51
2022/09/22 07:28:32;;;;;;;9.25;6.55;;;9.40;99.90;;;;;;4881584;29;20475;-52
2022/09/22 07:31:04;;;;;;;9.85;6.55;;;9.50;99.90;;;;;;4879027;29;20041;-52
2022/09/22 07:33:34;;;;;;;9.02;6.32;;;9.70;99.90;;;;;;4874678;29;20049;-50
2022/09/22 07:36:07;;;;;;;13.50;7.28;;;9.80;99.90;;;;;;4877501;29;20056;-52
2022/09/22 07:38:38;;;;;;;9.32;6.25;;;9.90;99.90;;;;;;4872214;29;20050;-50
2022/09/22 07:41:09;;;;;;;9.90;6.53;;;10.00;99.90;;;;;;4872067;29;20048;-51
2022/09/22 07:43:35;;;;;;;9.20;6.45;;;10.20;99.90;;;;;;4873481;29;20083;-50
2022/09/22 07:46:01;;;;;;;12.20;6.70;;;10.30;99.90;;;;;;4869915;29;20517;-51
2022/09/22 07:51:12;;;;;;;12.88;6.10;;;10.50;99.90;;;;;;4880040;29;20140;-49
2022/09/22 07:53:39;;;;;;;7.90;5.75;;;10.70;99.90;;;;;;4870707;29;20100;-50
2022/09/22 07:56:13;;;;;;;12.45;6.18;;;10.80;99.90;;;;;;4871805;29;20048;-49
2022/09/22 07:58:48;;;;;;;8.25;6.18;;;10.90;99.90;;;;;;4870213;29;20195;-51
2022/09/22 08:01:15;;;;;;;11.10;6.15;;;11.00;99.90;;;;;;4870836;29;20045;-48
2022/09/22 08:03:41;;;;;;;11.23;5.80;;;11.20;99.90;;;;;;4875364;29;20057;-54
2022/09/22 08:06:10;;;;;;;8.18;5.43;;;11.30;99.90;;;;;;4872185;29;20045;-51
2022/09/22 08:08:43;;;;;;;10.45;5.35;;;11.50;99.90;;;;;;4870734;29;20152;-50
2022/09/22 08:11:14;;;;;;;7.63;5.07;;;11.60;99.90;;;;;;4868450;29;20457;-52
2022/09/22 08:13:58;;;;;;;8.55;4.85;;;11.70;99.90;;;;;;4869631;29;20049;-50
2022/09/22 08:16:33;;;;;;;7.03;5.30;;;11.90;99.90;;;;;;4867867;29;20447;-51
2022/09/22 08:19:09;;;;;;;11.38;5.13;;;12.10;99.90;;;;;;4869207;29;20084;-51
2022/09/22 08:21:36;;;;;;;11.48;4.85;;;12.20;99.90;;;;;;4868118;29;20504;-48
2022/09/22 08:24:03;;;;;;;10.82;5.00;;;12.30;99.90;;;;;;4866626;29;20053;-50
2022/09/22 08:26:28;;;;;;;9.25;4.70;;;12.50;99.90;;;;;;4874150;29;20052;-50
2022/09/22 08:28:56;;;;;;;8.43;4.10;;;12.60;99.90;;;;;;4873024;29;20037;-50
2022/09/22 08:31:26;;;;;;;8.98;4.05;;;12.80;99.90;;;;;;4869902;29;20040;-51
2022/09/22 08:33:53;;;;;;;5.15;4.10;;;12.90;99.90;;;;;;4870590;29;20521;-52
2022/09/22 08:36:20;;;;;;;8.60;4.30;;;13.10;99.90;;;;;;4871779;29;20706;-52
2022/09/22 08:38:48;;;;;;;10.38;4.70;;;13.20;99.90;;;;;;4871803;29;20060;-53
2022/09/22 08:41:17;;;;;;;10.48;4.60;;;13.30;99.90;;;;;;4871423;29;20057;-48
2022/09/22 08:43:51;;;;;;;7.25;4.00;;;13.50;99.90;;;;;;4874350;29;20060;-50
2022/09/22 08:46:17;;;;;;;7.82;3.92;;;13.60;99.90;;;;;;4884821;29;20044;-52
2022/09/22 08:51:51;;;;;;;11.63;3.90;;;13.90;99.90;;;;;;4869133;29;20109;-50
2022/09/22 08:54:28;;;;;;;10.45;4.10;;;14.10;99.90;;;;;;4868748;29;20226;-50
2022/09/22 08:56:56;;;;;;;10.57;4.13;;;14.30;99.90;;;;;;4871322;29;20052;-52
2022/09/22 08:59:28;;;;;;;7.32;4.28;;;14.40;99.90;;;;;;4873105;29;20060;-52
2022/09/22 09:02:25;;;;;;;6.63;3.80;;;14.60;99.90;;;;;;4873147;29;20053;-51
2022/09/22 09:05:05;;;;;;;5.45;3.78;;;14.70;99.90;;;;;;4876622;29;20076;-52
2022/09/22 09:07:36;;;;;;;7.38;3.83;;;14.90;99.90;;;;;;4874695;29;20045;-52
2022/09/22 09:10:14;;;;;;;4.68;3.28;;;15.00;99.90;;;;;;4877592;29;20479;-51
2022/09/22 09:13:12;;;;;;;8.20;3.72;;;15.20;99.90;;;;;;4883374;29;20057;-52
2022/09/22 09:16:00;;;;;;;8.13;4.22;;;15.30;99.90;;;;;;4877622;29;20079;-52
2022/09/22 09:18:34;;;;;;;5.00;3.70;;;15.50;99.90;;;;;;4873832;29;20056;-50
2022/09/22 09:21:05;;;;;;;9.55;3.90;;;15.60;99.90;;;;;;4874956;29;20492;-51
2022/09/22 09:23:38;;;;;;;9.38;4.13;;;15.70;99.90;;;;;;4875503;29;20053;-48
2022/09/22 09:26:04;;;;;;;6.63;3.13;;;15.90;99.90;;;;;;4877004;29;20389;-52
2022/09/22 09:28:41;;;;;;;8.45;3.55;;;16.00;99.70;;;;;;4886812;29;20087;-51
2022/09/22 09:31:41;;;;;;;4.88;2.72;;;16.10;99.60;;;;;;4884863;29;20089;-49
2022/09/22 09:34:15;;;;;;;7.65;3.40;;;16.30;99.30;;;;;;4877053;29;20048;-53
2022/09/22 09:36:46;;;;;;;6.63;3.22;;;16.40;98.50;;;;;;4869945;29;20236;-49
2022/09/22 09:39:31;;;;;;;7.32;3.40;;;16.50;98.00;;;;;;4874092;29;20286;-50
2022/09/22 09:41:59;;;;;;;6.13;3.28;;;16.60;98.20;;;;;;4876526;29;20491;-51
2022/09/22 09:44:38;;;;;;;10.23;3.47;;;16.80;98.10;;;;;;4875625;29;20072;-51
2022/09/22 09:47:10;;;;;;;5.07;2.70;;;16.90;97.90;;;;;;4869838;29;20041;-50
2022/09/22 09:49:36;;;;;;;6.20;2.83;;;17.10;97.50;;;;;;4873775;29;20127;-49
2022/09/22 09:52:07;;;;;;;3.88;2.47;;;17.20;97.30;;;;;;4871919;29;20060;-53
2022/09/22 09:54:36;;;;;;;6.35;2.40;;;17.30;96.50;;;;;;4870347;29;20037;-50
2022/09/22 09:57:18;;;;;;;4.32;2.55;;;17.40;96.60;;;;;;4872552;29;20752;-53
2022/09/22 10:03:03;;;;;;;4.15;2.03;;;17.60;95.10;;;;;;4875938;29;20060;-51
2022/09/22 10:05:31;;;;;;;4.25;1.90;;;17.70;94.30;;;;;;4870249;29;20132;-53
2022/09/22 10:08:00;;;;;;;3.35;2.00;;;17.80;94.10;;;;;;4874592;29;20044;-48
2022/09/22 10:10:34;;;;;;;6.38;1.52;;;17.90;93.70;;;;;;4871831;29;20056;-53
2022/09/22 10:13:02;;;;;;;3.58;1.83;;;18.00;92.90;;;;;;4876115;29;20087;-54
2022/09/22 10:15:29;;;;;;;8.73;1.70;;;18.10;92.50;;;;;;4873127;29;20055;-51
2022/09/22 10:17:55;;;;;;;5.43;1.85;;;18.30;92.40;;;;;;4872276;29;20075;-51
2022/09/22 10:20:25;;;;;;;3.60;1.20;;;18.40;91.60;;;;;;4873228;29;20711;-49
2022/09/22 10:22:52;;;;;;;4.07;1.75;;;18.50;90.90;;;;;;4871985;29;20056;-51
2022/09/22 10:25:24;;;;;;;3.97;1.60;;;18.60;91.00;;;;;;4872687;29;20053;-52
2022/09/22 10:28:03;;;;;;;6.00;1.48;;;18.80;90.50;;;;;;4872023;29;20107;-51
2022/09/22 10:30:36;;;;;;;7.47;1.60;;;18.90;90.40;;;;;;4875760;29;20048;-54
2022/09/22 10:33:04;;;;;;;7.60;1.80;;;19.00;88.80;;;;;;4873140;29;20620;-53
2022/09/22 10:35:35;;;;;;;4.80;1.85;;;19.10;88.20;;;;;;4871730;29;20060;-49
2022/09/22 10:38:28;;;;;;;4.28;1.83;;;19.20;86.60;;;;;;4873785;29;20462;-50
2022/09/22 10:41:20;;;;;;;3.42;1.70;;;19.20;85.60;;;;;;4870044;29;20088;-53
2022/09/22 10:43:51;;;;;;;4.78;1.48;;;19.30;84.80;;;;;;4875114;29;20052;-52
2022/09/22 10:46:42;;;;;;;3.90;1.90;;;19.40;83.60;;;;;;4872580;29;20054;-53
2022/09/22 10:49:27;;;;;;;5.50;2.40;;;19.40;83.00;;;;;;4874468;29;20056;-54
2022/09/22 10:52:18;;;;;;;3.67;2.05;;;19.60;83.20;;;;;;4869546;29;20194;-51
2022/09/22 10:55:03;;;;;;;6.30;2.30;;;19.60;83.00;;;;;;4872780;29;20059;-52
2022/09/22 10:57:39;;;;;;;9.27;2.55;;;19.80;83.20;;;;;;4870690;29;20045;-53
2022/09/22 11:00:25;;;;;;;3.13;1.90;;;19.90;81.20;;;;;;4870173;29;20052;-52
2022/09/22 11:03:23;;;;;;;4.93;1.95;;;20.10;79.50;;;;;;4869632;29;20131;-53
2022/09/22 11:12:18;;;;;;;5.03;2.10;;;20.50;77.30;;;;;;4871724;29;20068;-51
2022/09/22 11:14:49;;;;;;;4.35;1.83;;;20.60;76.50;;;;;;4873730;29;20055;-50
2022/09/22 11:17:40;;;;;;;5.88;2.20;;;20.70;76.00;;;;;;4872991;29;20100;-53
2022/09/22 11:20:37;;;;;;;2.50;1.50;;;20.70;76.90;;;;;;4887215;29;20057;-52
2022/09/22 11:23:30;;;;;;;6.75;1.67;;;21.00;75.60;;;;;;4873115;29;20068;-51
2022/09/22 11:26:31;;;;;;;;;;;21.10;74.00;;;;;;4879974;29;20100;-53
2022/09/22 11:29:25;;;;;;;4.43;1.60;;;21.20;75.00;;;;;;4879662;29;20101;-53
2022/09/22 11:32:15;;;;;;;4.32;1.45;;;21.20;73.60;;;;;;4878571;29;20132;-52
2022/09/22 11:34:59;;;;;;;5.93;1.55;;;21.20;73.30;;;;;;4873765;29;20068;-54
2022/09/22 11:37:43;;;;;;;5.38;2.22;;;21.30;73.70;;;;;;4871782;29;20075;-53
2022/09/22 11:40:33;;;;;;;10.23;2.45;;;21.50;72.30;;;;;;4876099;29;20057;-52
2022/09/22 11:43:31;;;;;;;6.22;2.30;;;21.50;71.40;;;;;;4871851;29;20416;-52
2022/09/22 11:46:06;;;;;;;5.50;1.95;;;21.60;70.40;;;;;;4870878;29;20516;-52
2022/09/22 11:49:08;;;;;;;2.83;1.80;;;21.50;70.80;;;;;;4871245;29;20052;-50
2022/09/22 11:51:52;;;;;;;5.80;2.25;;;21.50;70.40;;;;;;4870030;29;20092;-54
2022/09/22 11:54:57;;;;;;;7.50;2.30;;;21.40;69.90;;;;;;4870704;29;20052;-50
2022/09/22 11:57:26;;;;;;;6.65;2.20;;;21.40;70.80;;;;;;4837559;29;20048;-54
2022/09/22 12:00:00;;;;;;;5.63;2.35;;;21.50;71.70;;;;;;4873708;29;20056;-51
2022/09/22 12:02:45;;;;;;;5.35;2.25;;;21.70;70.70;;;;;;4873264;29;20108;-53
2022/09/22 12:05:12;;;;;;;5.00;2.30;;;21.70;69.20;;;;;;4870216;29;20659;-53
2022/09/22 12:07:46;;;;;;;5.22;2.53;;;21.70;69.30;;;;;;4867563;29;20052;-52
2022/09/22 12:10:16;;;;;;;5.15;2.47;;;21.90;70.00;;;;;;4873239;29;20196;-53
2022/09/22 12:12:47;;;;;;;4.95;2.20;;;22.10;71.00;;;;;;4871759;29;20060;-51
2022/09/22 12:15:28;;;;;;;7.80;3.47;;;22.40;70.40;;;;;;4863763;29;20123;-51
2022/09/22 12:18:15;;;;;;;6.35;3.38;;;22.60;68.30;;;;;;4859945;29;20181;-53
2022/09/22 12:21:04;;;;;;;4.95;2.83;;;22.60;67.80;;;;;;4861728;29;20052;-49
2022/09/22 12:23:41;;;;;;;6.72;3.00;;;22.40;67.50;;;;;;4867530;29;20095;-51
2022/09/22 12:26:12;;;;;;;4.80;2.97;;;22.10;66.40;;;;;;4868076;29;20044;-53
2022/09/22 12:28:47;;;;;;;5.45;3.00;;;21.80;65.80;;;;;;4856838;29;20075;-51
2022/09/22 12:31:15;;;;;;;10.85;3.13;;;21.80;66.30;;;;;;4858959;29;20053;-52
2022/09/22 12:34:04;;;;;;;8.32;3.20;;;21.90;66.90;;;;;;4870007;29;20591;-51
2022/09/22 12:36:40;;;;;;;8.15;2.80;;;22.30;67.40;;;;;;4871468;29;20053;-50
2022/09/22 12:39:16;;;;;;;7.97;3.30;;;22.70;68.00;;;;;;4871469;29;20057;-52
2022/09/22 12:42:04;;;;;;;6.22;3.60;;;23.00;66.50;;;;;;4874065;29;20056;-52
2022/09/22 12:44:35;;;;;;;6.68;3.28;;;23.20;63.90;;;;;;4866777;29;20064;-52
2022/09/22 12:47:23;;;;;;;6.13;2.97;;;23.30;63.50;;;;;;4870568;29;20095;-55
2022/09/22 12:50:03;;;;;;;6.32;3.15;;;23.30;63.50;;;;;;4877201;29;20056;-53
2022/09/22 12:52:41;;;;;;;8.02;4.00;;;23.20;64.00;;;;;;4875364;29;20203;-52
2022/09/22 12:55:28;;;;;;;8.88;3.67;;;23.10;62.50;;;;;;4876782;29;20137;-53
2022/09/22 12:58:00;;;;;;;6.90;3.80;;;23.00;62.00;;;;;;4876116;29;20452;-51
2022/09/22 13:00:41;;;;;;;6.85;3.45;;;23.00;62.40;;;;;;4879984;29;20065;-50
2022/09/22 13:03:25;;;;;;;7.72;3.00;;;23.10;62.60;;;;;;4878571;29;20049;-54
2022/09/22 13:05:56;;;;;;;6.60;2.85;;;23.20;62.70;;;;;;4879784;29;20151;-51
2022/09/22 13:08:24;;;;;;;5.40;3.15;;;23.30;61.90;;;;;;4876166;29;20045;-52
2022/09/22 13:11:05;;;;;;;7.40;2.72;;;23.40;62.10;;;;;;4887690;29;20407;-50
2022/09/22 13:13:36;;;;;;;4.60;2.58;;;23.50;61.50;;;;;;4875021;29;20593;-52
2022/09/22 13:16:14;;;;;;;6.78;3.05;;;23.70;62.10;;;;;;4874587;29;21090;-51
2022/09/22 13:18:52;;;;;;;6.68;2.78;;;24.00;61.50;;;;;;4871652;29;20052;-51
2022/09/22 13:21:22;;;;;;;5.68;2.53;;;24.10;60.10;;;;;;4884474;29;20049;-51
2022/09/22 13:23:48;;;;;;;3.97;2.65;;;23.90;59.50;;;;;;4872058;29;20056;-53
2022/09/22 13:26:15;;;;;;;4.32;2.50;;;23.60;59.20;;;;;;4869069;29;20064;-53
2022/09/22 13:28:42;;;;;;;5.38;3.00;;;23.50;60.00;;;;;;4873288;29;20385;-51
2022/09/22 13:31:15;;;;;;;7.38;3.40;;;23.60;59.90;;;;;;4874319;29;20084;-52
2022/09/22 13:33:42;;;;;;;7.28;3.30;;;23.60;59.90;;;;;;4876759;29;20056;-51
2022/09/22 13:36:12;;;;;;;7.85;3.33;;;23.50;59.90;;;;;;4871494;29;20056;-53